Time;durP1;ratioP1;P1;durP2;ratioP2;P2;SDS_P1;SDS_P2;PMS_P1;PMS_P2;Temp;Humidity;BMP_temperature;BMP_pressure;BME280_temperature;BME280_humidity;BME280_pressure;Samples;Min_cycle;Max_cycle;Signal;HPM_P1;HPM_P2
2022/06/21 00:02:02;;;;;;;0.50;0.50;;;15.50;94.70;;;;;;5052190;28;20721;-86
2022/06/21 00:04:30;;;;;;;0.83;0.80;;;15.50;94.70;;;;;;5051720;28;20725;-87
2022/06/21 00:06:57;;;;;;;0.60;0.60;;;15.60;95.10;;;;;;5051023;28;21233;-87
2022/06/21 00:09:24;;;;;;;1.10;1.10;;;15.70;94.90;;;;;;5051416;28;21163;-87
2022/06/21 00:11:52;;;;;;;0.93;0.63;;;15.80;94.10;;;;;;5051553;28;20632;-87
2022/06/21 00:14:20;;;;;;;0.77;0.60;;;15.80;94.50;;;;;;5051777;28;20708;-87
2022/06/21 00:16:47;;;;;;;0.90;0.80;;;15.90;95.10;;;;;;5051000;28;20664;-87
2022/06/21 00:19:21;;;;;;;0.70;0.70;;;15.90;94.40;;;;;;5051454;28;20683;-87
2022/06/21 00:21:50;;;;;;;1.00;0.80;;;15.70;94.80;;;;;;5051185;28;20617;-87
2022/06/21 00:24:18;;;;;;;1.00;0.77;;;15.80;95.50;;;;;;5051464;28;20645;-87
2022/06/21 00:26:47;;;;;;;1.17;0.60;;;15.80;95.20;;;;;;5050925;28;20626;-87
2022/06/21 00:29:14;;;;;;;0.93;0.77;;;15.90;95.10;;;;;;5051545;28;20598;-87
2022/06/21 00:31:45;;;;;;;0.77;0.77;;;15.90;95.00;;;;;;5051905;28;20696;-87
2022/06/21 00:34:18;;;;;;;0.90;0.87;;;15.70;94.80;;;;;;5051384;28;20625;-87
2022/06/21 00:36:49;;;;;;;1.20;1.10;;;15.70;95.40;;;;;;5050780;28;20641;-87
2022/06/21 00:39:18;;;;;;;1.13;0.97;;;15.70;95.40;;;;;;5050730;28;20621;-87
2022/06/21 00:41:50;;;;;;;1.57;1.00;;;15.60;95.60;;;;;;5051264;28;20633;-87
2022/06/21 00:44:34;;;;;;;0.80;0.80;;;15.60;95.60;;;;;;5050947;28;20707;-87
2022/06/21 00:47:05;;;;;;;0.93;0.50;;;15.50;95.90;;;;;;5050144;28;20609;-87
2022/06/21 00:49:40;;;;;;;1.40;1.00;;;15.50;96.10;;;;;;5050885;28;20624;-87
2022/06/21 00:52:15;;;;;;;1.00;1.00;;;15.50;96.40;;;;;;5050998;28;20617;-86
2022/06/21 00:54:50;;;;;;;0.80;0.80;;;15.40;96.20;;;;;;5050795;28;20708;-87
2022/06/21 01:01:17;;;;;;;0.77;0.67;;;15.50;95.60;;;;;;5050653;28;20565;-87
2022/06/21 01:03:52;;;;;;;1.17;1.00;;;15.60;96.10;;;;;;5048978;28;21518;-87
2022/06/21 01:06:24;;;;;;;0.70;0.67;;;15.60;96.50;;;;;;5048507;28;20733;-86
2022/06/21 01:08:56;;;;;;;0.63;0.63;;;15.50;95.70;;;;;;5050458;28;20617;-87
2022/06/21 01:11:28;;;;;;;0.70;0.70;;;15.30;96.30;;;;;;5050455;28;20602;-87
2022/06/21 01:13:58;;;;;;;0.70;0.70;;;15.30;96.60;;;;;;5050062;28;20937;-87
2022/06/21 01:16:28;;;;;;;0.77;0.77;;;15.30;96.50;;;;;;5049586;28;20645;-87
2022/06/21 01:18:56;;;;;;;1.20;1.10;;;15.10;96.20;;;;;;5050337;28;20974;-87
2022/06/21 01:21:25;;;;;;;0.70;0.70;;;15.10;96.30;;;;;;5050070;28;20625;-87
2022/06/21 01:24:05;;;;;;;0.70;0.67;;;15.20;96.70;;;;;;5050264;28;20606;-86
2022/06/21 01:26:50;;;;;;;0.70;0.70;;;15.00;96.20;;;;;;5049117;28;20635;-87
2022/06/21 01:29:20;;;;;;;1.00;0.63;;;15.10;96.60;;;;;;5050119;28;20739;-86
2022/06/21 01:31:52;;;;;;;1.17;0.60;;;15.20;96.80;;;;;;5049920;28;20717;-86
2022/06/21 01:34:22;;;;;;;0.40;0.40;;;15.20;96.80;;;;;;5050077;28;20699;-87
2022/06/21 01:36:53;;;;;;;1.13;1.07;;;15.40;96.70;;;;;;5049104;28;20646;-87
2022/06/21 01:39:25;;;;;;;1.00;0.90;;;15.50;96.40;;;;;;5050072;28;20618;-87
2022/06/21 01:41:58;;;;;;;0.50;0.50;;;15.50;96.40;;;;;;5049872;28;20672;-87
2022/06/21 01:44:31;;;;;;;0.70;0.70;;;15.50;96.70;;;;;;5050371;28;21171;-87
2022/06/21 01:47:03;;;;;;;1.00;0.90;;;15.40;96.80;;;;;;5049216;28;20943;-87
2022/06/21 01:49:34;;;;;;;1.07;1.03;;;15.40;95.90;;;;;;5049217;28;20610;-88
2022/06/21 01:52:07;;;;;;;2.73;0.80;;;15.40;95.10;;;;;;5049224;28;20622;-86
2022/06/21 01:54:38;;;;;;;0.80;0.60;;;15.30;94.30;;;;;;5050028;28;20927;-87
2022/06/21 01:57:11;;;;;;;0.60;0.60;;;15.40;93.70;;;;;;5048625;28;20641;-87
2022/06/21 01:59:42;;;;;;;1.30;1.03;;;15.30;93.30;;;;;;5049526;28;21148;-86
2022/06/21 02:02:12;;;;;;;0.50;0.50;;;15.20;93.70;;;;;;5049284;28;20680;-87
2022/06/21 02:04:44;;;;;;;0.70;0.70;;;15.20;93.90;;;;;;5049352;28;20652;-86
2022/06/21 02:07:19;;;;;;;0.77;0.77;;;15.10;93.80;;;;;;5048798;28;20629;-86
2022/06/21 02:09:50;;;;;;;0.80;0.80;;;15.00;93.80;;;;;;5050013;28;20617;-86
2022/06/21 02:12:18;;;;;;;0.77;0.77;;;14.80;94.10;;;;;;5049491;28;21210;-86
2022/06/21 02:14:50;;;;;;;1.07;0.90;;;14.80;93.70;;;;;;5049636;28;20956;-86
2022/06/21 02:17:20;;;;;;;0.70;0.70;;;14.70;93.80;;;;;;5048642;28;20681;-87
2022/06/21 02:19:50;;;;;;;1.07;0.97;;;14.80;93.90;;;;;;5049393;28;21038;-86
2022/06/21 02:22:19;;;;;;;0.97;0.80;;;14.70;94.10;;;;;;5049311;28;20642;-86
2022/06/21 02:24:47;;;;;;;0.93;0.80;;;14.60;94.10;;;;;;5048755;28;20614;-87
2022/06/21 02:27:16;;;;;;;1.40;1.30;;;14.50;94.10;;;;;;5048297;28;20683;-86
2022/06/21 02:29:50;;;;;;;1.13;0.93;;;14.50;94.20;;;;;;5049015;28;20621;-87
2022/06/21 02:32:21;;;;;;;0.80;0.80;;;14.50;94.80;;;;;;5049031;28;20676;-86
2022/06/21 02:34:50;;;;;;;0.70;0.70;;;14.50;94.80;;;;;;5049525;28;21005;-86
2022/06/21 02:37:17;;;;;;;1.20;1.10;;;14.40;95.10;;;;;;5047986;28;20645;-86
2022/06/21 02:39:46;;;;;;;1.07;0.97;;;14.40;94.70;;;;;;5049099;28;20622;-86
2022/06/21 02:42:19;;;;;;;0.97;0.50;;;14.30;94.70;;;;;;5049001;28;21032;-87
2022/06/21 02:44:51;;;;;;;0.57;0.57;;;14.40;94.80;;;;;;5048481;28;20646;-87
2022/06/21 02:47:23;;;;;;;0.90;0.90;;;14.40;94.70;;;;;;5048598;28;20673;-87
2022/06/21 02:49:55;;;;;;;0.90;0.90;;;14.40;93.90;;;;;;5048201;28;20606;-86
2022/06/21 02:52:25;;;;;;;1.37;1.00;;;14.30;93.80;;;;;;5048673;28;21191;-86
2022/06/21 02:54:59;;;;;;;1.17;0.80;;;14.20;94.10;;;;;;5048666;28;20618;-86
2022/06/21 02:57:31;;;;;;;1.00;0.87;;;14.20;94.30;;;;;;5047861;28;20739;-86
2022/06/21 03:00:01;;;;;;;0.73;0.73;;;14.20;94.30;;;;;;5048493;28;20676;-87
2022/06/21 03:02:32;;;;;;;2.50;1.03;;;14.00;94.20;;;;;;5047927;28;20625;-86
2022/06/21 03:05:02;;;;;;;1.77;0.80;;;14.10;94.90;;;;;;5048357;28;20625;-87
2022/06/21 03:07:32;;;;;;;1.03;0.63;;;14.20;94.90;;;;;;5047910;28;21075;-86
2022/06/21 03:10:00;;;;;;;1.30;1.00;;;14.20;94.60;;;;;;5048457;28;20613;-87
2022/06/21 03:12:30;;;;;;;1.10;1.00;;;14.10;94.60;;;;;;5080591;28;21172;-87
2022/06/21 03:15:02;;;;;;;1.00;0.90;;;14.20;94.80;;;;;;5048315;28;20655;-87
2022/06/21 03:17:35;;;;;;;1.23;0.90;;;14.30;94.50;;;;;;5047769;28;21047;-86
2022/06/21 03:20:02;;;;;;;0.70;0.70;;;14.30;94.40;;;;;;5048466;28;20622;-86
2022/06/21 03:22:33;;;;;;;1.30;1.20;;;14.20;95.20;;;;;;5048616;28;20645;-86
2022/06/21 03:25:04;;;;;;;1.20;0.87;;;14.30;95.90;;;;;;5048338;28;21079;-86
2022/06/21 03:27:36;;;;;;;1.80;1.20;;;14.30;95.90;;;;;;5047598;28;21088;-87
2022/06/21 03:30:06;;;;;;;1.47;1.03;;;14.30;96.80;;;;;;5048655;28;20684;-87
2022/06/21 03:32:36;;;;;;;0.80;0.80;;;14.30;95.40;;;;;;5048443;28;21169;-87
2022/06/21 03:35:05;;;;;;;1.00;1.00;;;14.40;96.00;;;;;;5048259;28;20613;-86
2022/06/21 03:37:34;;;;;;;1.03;0.90;;;14.40;96.60;;;;;;5047155;28;21275;-86
2022/06/21 03:42:49;;;;;;;1.00;1.00;;;14.30;96.40;;;;;;5048152;28;20700;-87
2022/06/21 03:45:22;;;;;;;1.03;1.00;;;14.10;95.00;;;;;;5048589;28;20618;-86
2022/06/21 03:47:56;;;;;;;0.80;0.80;;;14.10;94.20;;;;;;5048323;28;20976;-87
2022/06/21 03:50:29;;;;;;;0.80;0.80;;;14.10;93.40;;;;;;5047928;28;20629;-87
2022/06/21 03:53:02;;;;;;;0.87;0.87;;;14.10;93.80;;;;;;5048280;28;20641;-86
2022/06/21 03:55:40;;;;;;;1.23;0.70;;;14.10;92.60;;;;;;5048166;28;20669;-87
2022/06/21 03:58:13;;;;;;;1.27;1.17;;;14.10;92.90;;;;;;5046864;28;20656;-87
2022/06/21 04:00:48;;;;;;;0.80;0.80;;;14.10;93.00;;;;;;5047396;28;20610;-86
2022/06/21 04:03:22;;;;;;;1.00;0.93;;;14.10;92.50;;;;;;5048375;28;20613;-86
2022/06/21 04:05:56;;;;;;;1.77;1.13;;;14.20;93.60;;;;;;5047318;28;20614;-86
2022/06/21 04:08:36;;;;;;;1.30;0.87;;;14.20;94.00;;;;;;5047791;28;20626;-87
2022/06/21 04:11:06;;;;;;;0.67;0.67;;;14.30;94.30;;;;;;5047496;28;20618;-87
2022/06/21 04:13:39;;;;;;;1.20;1.10;;;14.40;93.70;;;;;;5048706;28;20629;-87
2022/06/21 04:16:15;;;;;;;0.93;0.90;;;14.50;92.70;;;;;;5050980;28;20965;-88
2022/06/21 04:18:48;;;;;;;1.20;1.10;;;14.60;92.90;;;;;;5051913;28;20689;-88
2022/06/21 04:21:19;;;;;;;0.73;0.73;;;14.80;90.90;;;;;;5051192;28;20712;-88
2022/06/21 04:23:50;;;;;;;1.20;1.07;;;15.00;90.20;;;;;;5051531;28;21225;-87
2022/06/21 04:26:24;;;;;;;0.83;0.83;;;15.10;90.50;;;;;;5051112;28;20621;-88
2022/06/21 04:28:54;;;;;;;1.27;1.17;;;15.10;90.20;;;;;;5051618;28;20720;-87
2022/06/21 04:31:28;;;;;;;1.30;1.20;;;15.00;91.00;;;;;;5051211;28;20614;-87
2022/06/21 04:33:59;;;;;;;0.60;0.60;;;15.10;90.20;;;;;;5051115;28;20632;-89
2022/06/21 04:36:32;;;;;;;1.10;1.00;;;15.20;90.80;;;;;;5050619;28;21020;-89
2022/06/21 04:39:03;;;;;;;0.80;0.80;;;15.30;89.70;;;;;;5051100;28;20653;-87
2022/06/21 04:41:35;;;;;;;1.60;1.50;;;15.40;88.70;;;;;;5051136;28;20676;-88
2022/06/21 04:44:06;;;;;;;1.10;0.90;;;15.60;86.20;;;;;;5051143;28;20626;-88
2022/06/21 04:46:40;;;;;;;0.77;0.77;;;15.60;85.70;;;;;;5049821;28;20675;-89
2022/06/21 04:49:15;;;;;;;1.27;1.20;;;15.70;85.60;;;;;;5051175;28;20628;-88
2022/06/21 04:51:48;;;;;;;0.90;0.90;;;15.70;84.20;;;;;;5050565;28;20613;-89
2022/06/21 04:54:25;;;;;;;1.20;1.17;;;15.80;83.70;;;;;;5051331;28;21167;-88
2022/06/21 04:57:32;;;;;;;0.90;0.80;;;15.90;83.90;;;;;;5048871;28;20613;-88
2022/06/21 05:00:03;;;;;;;1.50;1.40;;;15.10;82.40;;;;;;5051043;28;20688;-89
2022/06/21 05:02:34;;;;;;;1.70;0.90;;;16.00;83.90;;;;;;5051021;28;20736;-89
2022/06/21 05:05:05;;;;;;;1.30;1.20;;;16.00;84.60;;;;;;5051717;28;20614;-89
2022/06/21 05:07:36;;;;;;;2.03;1.00;;;16.00;84.20;;;;;;5050167;28;20610;-89
2022/06/21 05:10:04;;;;;;;1.00;1.00;;;16.00;83.00;;;;;;5051753;28;20609;-88
2022/06/21 05:12:34;;;;;;;1.03;0.93;;;16.10;83.00;;;;;;5050990;28;20611;-88
2022/06/21 05:15:05;;;;;;;0.90;0.90;;;16.20;82.70;;;;;;5051179;28;20695;-88
2022/06/21 05:17:42;;;;;;;1.43;1.13;;;16.30;82.20;;;;;;5050772;28;20707;-89
2022/06/21 05:20:16;;;;;;;0.67;0.67;;;16.20;83.00;;;;;;5051307;28;21098;-89
2022/06/21 05:22:47;;;;;;;1.13;1.03;;;16.20;81.90;;;;;;5050902;28;20613;-87
2022/06/21 05:25:21;;;;;;;0.70;0.70;;;16.20;82.60;;;;;;5050631;28;20656;-88
2022/06/21 05:27:52;;;;;;;2.83;1.00;;;16.20;81.30;;;;;;5050415;28;20994;-90
2022/06/21 05:30:24;;;;;;;1.30;1.20;;;16.30;82.00;;;;;;5050527;28;20622;-89
2022/06/21 05:32:57;;;;;;;1.27;0.87;;;16.40;79.90;;;;;;5050769;28;20606;-88
2022/06/21 05:35:32;;;;;;;1.70;1.40;;;16.40;80.80;;;;;;5050950;28;20602;-91
2022/06/21 05:38:07;;;;;;;1.20;1.10;;;16.30;80.40;;;;;;5049834;28;20677;-88
2022/06/21 05:40:43;;;;;;;0.80;0.80;;;16.30;81.70;;;;;;5049806;28;20671;-88
2022/06/21 05:43:15;;;;;;;1.03;0.87;;;16.40;81.70;;;;;;5050635;28;20618;-89
2022/06/21 05:45:49;;;;;;;1.13;1.10;;;16.60;82.40;;;;;;5050068;28;20622;-89
2022/06/21 05:48:26;;;;;;;2.13;1.50;;;16.70;82.30;;;;;;5050559;28;21225;-89
2022/06/21 05:50:56;;;;;;;1.57;1.47;;;16.70;82.70;;;;;;5050380;28;21164;-89
2022/06/21 05:53:30;;;;;;;1.20;1.07;;;16.90;80.60;;;;;;5049839;28;20618;-88
2022/06/21 05:56:04;;;;;;;1.33;1.23;;;17.00;84.40;;;;;;5048034;28;20598;-88
2022/06/21 05:58:37;;;;;;;1.03;1.03;;;16.70;81.80;;;;;;5049653;28;20752;-89
2022/06/21 06:01:09;;;;;;;0.83;0.83;;;16.80;82.00;;;;;;5049935;28;20613;-89
2022/06/21 06:03:59;;;;;;;1.33;1.10;;;16.70;81.80;;;;;;5049703;28;20606;-89
2022/06/21 06:06:34;;;;;;;1.00;1.00;;;16.80;81.60;;;;;;5049256;28;21006;-89
2022/06/21 06:09:26;;;;;;;0.70;0.70;;;16.70;79.20;;;;;;5049493;28;20693;-91
2022/06/21 06:12:01;;;;;;;1.00;0.80;;;16.40;78.90;;;;;;5049135;28;20602;-89
2022/06/21 06:14:34;;;;;;;1.20;1.20;;;16.70;79.80;;;;;;5049616;28;20621;-90
2022/06/21 06:17:09;;;;;;;1.40;1.00;;;16.70;80.40;;;;;;5049165;28;20594;-88
2022/06/21 06:19:48;;;;;;;0.80;0.67;;;16.80;80.40;;;;;;5049591;28;20829;-89
2022/06/21 06:22:27;;;;;;;1.00;1.00;;;16.70;82.60;;;;;;5050623;28;21091;-90
2022/06/21 06:25:00;;;;;;;0.50;0.50;;;16.90;80.60;;;;;;5049238;28;21078;-89
2022/06/21 06:27:45;;;;;;;2.83;0.87;;;16.80;79.60;;;;;;5049118;28;20599;-89
2022/06/21 06:30:22;;;;;;;1.10;1.00;;;17.00;80.20;;;;;;5049251;28;21185;-89
2022/06/21 06:33:00;;;;;;;1.33;1.10;;;17.30;80.70;;;;;;5049349;28;20608;-89
2022/06/21 06:35:29;;;;;;;1.17;1.07;;;17.30;80.40;;;;;;5049552;28;21148;-90
2022/06/21 06:37:56;;;;;;;2.47;1.43;;;17.40;81.80;;;;;;5047738;28;20657;-89
2022/06/21 06:40:28;;;;;;;0.60;0.60;;;17.50;80.60;;;;;;5048609;28;20630;-87
2022/06/21 06:42:59;;;;;;;1.93;1.63;;;17.60;83.00;;;;;;5049205;28;20602;-90
2022/06/21 06:45:32;;;;;;;1.23;1.00;;;17.70;82.00;;;;;;5048637;28;21083;-90
2022/06/21 06:48:03;;;;;;;0.80;0.80;;;17.60;80.80;;;;;;5048305;28;20672;-89
2022/06/21 06:50:42;;;;;;;1.43;1.33;;;18.00;81.10;;;;;;5048914;28;20614;-89
2022/06/21 06:53:14;;;;;;;1.33;1.23;;;17.90;81.90;;;;;;5049082;28;20656;-91
2022/06/21 06:55:45;;;;;;;1.17;0.80;;;18.10;82.00;;;;;;5047794;28;20606;-90
2022/06/21 06:58:21;;;;;;;0.93;0.87;;;18.20;80.70;;;;;;5049384;28;20642;-88
2022/06/21 07:00:52;;;;;;;0.90;0.90;;;18.30;78.50;;;;;;5048408;28;20610;-90
2022/06/21 07:03:22;;;;;;;1.10;1.00;;;18.30;80.00;;;;;;5048786;28;20629;-90
2022/06/21 07:05:55;;;;;;;0.90;0.90;;;18.40;79.70;;;;;;5048196;28;20653;-89
2022/06/21 07:08:28;;;;;;;1.07;0.83;;;18.40;78.50;;;;;;5048387;28;20717;-88
2022/06/21 07:10:58;;;;;;;1.37;1.27;;;18.50;78.30;;;;;;5048268;28;20618;-88
2022/06/21 07:13:27;;;;;;;1.40;1.30;;;18.50;77.50;;;;;;5048616;28;20630;-88
2022/06/21 07:15:57;;;;;;;2.47;0.90;;;18.40;77.30;;;;;;5048147;28;20598;-89
2022/06/21 07:18:30;;;;;;;1.07;0.97;;;18.50;77.30;;;;;;5048751;28;20646;-87
2022/06/21 07:21:01;;;;;;;2.33;1.43;;;18.70;76.80;;;;;;5048606;28;20929;-89
2022/06/21 07:23:30;;;;;;;1.10;1.07;;;19.00;75.60;;;;;;5048304;28;21167;-89
2022/06/21 07:25:59;;;;;;;0.90;0.90;;;19.20;75.30;;;;;;5047121;28;20626;-89
2022/06/21 07:28:32;;;;;;;1.07;1.00;;;19.50;73.50;;;;;;5048176;28;20661;-90
2022/06/21 07:31:03;;;;;;;0.93;0.87;;;19.50;76.10;;;;;;5048051;28;20625;-90
2022/06/21 07:33:35;;;;;;;1.13;1.03;;;19.60;73.60;;;;;;5048259;28;20606;-87
2022/06/21 07:36:11;;;;;;;1.33;1.23;;;19.60;71.30;;;;;;5047583;28;20629;-87
2022/06/21 07:38:43;;;;;;;1.23;1.13;;;19.50;71.60;;;;;;5048008;28;20761;-89
2022/06/21 07:41:17;;;;;;;1.07;1.03;;;19.50;72.20;;;;;;5047874;28;21011;-89
2022/06/21 07:43:47;;;;;;;1.93;1.00;;;19.50;72.30;;;;;;5047808;28;20640;-88
2022/06/21 07:46:20;;;;;;;1.20;1.10;;;19.60;74.60;;;;;;5047348;28;20886;-90
2022/06/21 07:48:51;;;;;;;1.47;1.30;;;19.70;72.60;;;;;;5049717;28;20602;-89
2022/06/21 07:51:25;;;;;;;2.17;1.57;;;19.80;71.70;;;;;;5052246;28;20668;-90
2022/06/21 07:54:10;;;;;;;0.70;0.70;;;19.80;69.40;;;;;;5052007;28;20671;-88
2022/06/21 07:57:00;;;;;;;1.33;0.93;;;19.80;70.20;;;;;;5051042;28;20642;-88
2022/06/21 07:59:33;;;;;;;1.13;1.00;;;19.80;70.80;;;;;;5052339;28;20638;-89
2022/06/21 08:07:52;;;;;;;1.20;1.10;;;20.20;71.90;;;;;;5051300;28;20638;-89
2022/06/21 08:10:23;;;;;;;1.40;1.30;;;20.50;67.50;;;;;;5051681;28;20614;-89
2022/06/21 08:12:51;;;;;;;0.57;0.57;;;20.40;68.10;;;;;;5051283;28;21488;-88
2022/06/21 08:15:18;;;;;;;2.10;1.50;;;20.30;67.70;;;;;;5051386;28;20961;-87
2022/06/21 08:17:52;;;;;;;1.43;1.33;;;20.30;66.70;;;;;;5051043;28;20621;-89
2022/06/21 08:20:24;;;;;;;1.40;1.30;;;20.30;67.70;;;;;;5051696;28;20706;-89
2022/06/21 08:22:59;;;;;;;1.23;1.13;;;20.30;68.10;;;;;;5051658;28;21104;-89
2022/06/21 08:25:32;;;;;;;1.17;1.07;;;20.20;69.10;;;;;;5050610;28;20640;-89
2022/06/21 08:28:10;;;;;;;1.63;1.00;;;20.20;68.10;;;;;;5050870;28;20610;-88
2022/06/21 08:30:45;;;;;;;1.00;0.90;;;20.20;67.70;;;;;;5051539;28;20625;-87
2022/06/21 08:33:18;;;;;;;1.23;1.13;;;20.20;67.50;;;;;;5051211;28;20633;-88
2022/06/21 08:35:48;;;;;;;0.90;0.90;;;20.00;69.00;;;;;;5050344;28;21183;-91
2022/06/21 08:38:24;;;;;;;0.90;0.90;;;20.10;70.20;;;;;;5051100;28;20618;-87
2022/06/21 08:44:35;;;;;;;1.20;1.10;;;20.40;68.40;;;;;;5050435;28;20618;-89
2022/06/21 08:47:27;;;;;;;1.27;1.03;;;20.40;68.80;;;;;;5048934;28;20676;-88
2022/06/21 08:50:28;;;;;;;1.20;1.03;;;20.30;67.40;;;;;;5051374;28;20618;-88
2022/06/21 08:53:07;;;;;;;1.67;1.20;;;20.10;67.00;;;;;;5051130;28;20952;-87
2022/06/21 08:55:46;;;;;;;1.20;1.10;;;20.00;67.50;;;;;;5050410;28;20719;-88
2022/06/21 08:58:45;;;;;;;1.03;0.90;;;19.90;67.80;;;;;;5050740;28;20657;-88
2022/06/21 09:01:20;;;;;;;1.23;1.13;;;19.90;71.10;;;;;;5050674;28;20608;-88
2022/06/21 09:04:16;;;;;;;1.33;1.23;;;19.90;71.50;;;;;;5050654;28;20630;-90
2022/06/21 09:06:56;;;;;;;1.20;1.00;;;19.90;74.10;;;;;;5050432;28;20617;-88
2022/06/21 09:09:36;;;;;;;1.10;1.03;;;19.90;74.20;;;;;;5050747;28;21340;-89
2022/06/21 09:12:17;;;;;;;1.40;1.30;;;19.80;74.80;;;;;;5050267;28;20618;-90
2022/06/21 09:15:11;;;;;;;1.40;1.17;;;19.80;72.70;;;;;;5051076;28;20693;-88
2022/06/21 09:17:46;;;;;;;1.20;1.10;;;19.90;74.00;;;;;;5040877;28;20637;-88
2022/06/21 09:20:27;;;;;;;1.10;1.00;;;19.90;74.40;;;;;;5050688;28;20649;-87
2022/06/21 09:23:06;;;;;;;2.20;1.20;;;20.00;71.40;;;;;;5050627;28;20707;-88
2022/06/21 09:25:45;;;;;;;1.37;1.27;;;20.10;70.50;;;;;;5050307;28;20625;-88
2022/06/21 09:28:24;;;;;;;1.43;1.33;;;20.50;70.70;;;;;;5050375;28;20619;-88
2022/06/21 09:30:58;;;;;;;1.00;1.00;;;20.70;70.80;;;;;;5050616;28;20649;-89
2022/06/21 09:33:38;;;;;;;0.90;0.90;;;20.90;67.40;;;;;;5050430;28;20594;-88
2022/06/21 09:36:11;;;;;;;0.80;0.80;;;20.90;67.90;;;;;;5049332;28;20661;-88
2022/06/21 09:38:49;;;;;;;1.30;1.20;;;21.00;69.60;;;;;;5050238;28;20987;-86
2022/06/21 09:41:22;;;;;;;1.73;1.60;;;21.40;67.70;;;;;;5049858;28;21259;-87
2022/06/21 09:44:05;;;;;;;0.93;0.93;;;21.40;67.00;;;;;;5050061;28;20684;-87
2022/06/21 09:46:46;;;;;;;2.03;1.30;;;21.60;67.00;;;;;;5048973;28;20678;-87
2022/06/21 09:49:25;;;;;;;1.67;1.30;;;21.70;71.00;;;;;;5050121;28;20653;-87
2022/06/21 09:52:01;;;;;;;1.30;1.20;;;21.90;70.40;;;;;;5049630;28;20648;-88
2022/06/21 09:54:34;;;;;;;1.40;1.33;;;22.20;66.70;;;;;;5049869;28;20629;-87
2022/06/21 09:57:19;;;;;;;1.10;1.03;;;22.30;69.40;;;;;;5047820;28;20672;-87
2022/06/21 10:00:06;;;;;;;1.07;1.00;;;22.50;67.50;;;;;;5049689;28;20648;-88
2022/06/21 10:02:40;;;;;;;1.30;1.20;;;22.50;68.10;;;;;;5049704;28;20609;-87
2022/06/21 10:05:15;;;;;;;1.23;1.20;;;22.60;67.40;;;;;;5049056;28;21248;-86
2022/06/21 10:08:00;;;;;;;1.50;1.40;;;22.90;67.10;;;;;;5048865;28;20620;-86
2022/06/21 10:10:37;;;;;;;1.70;1.33;;;23.20;64.60;;;;;;5049122;28;20622;-89
2022/06/21 10:13:17;;;;;;;1.27;1.17;;;23.20;65.30;;;;;;5049151;28;20594;-87
2022/06/21 10:15:53;;;;;;;1.20;1.10;;;23.20;65.30;;;;;;5049094;28;21289;-86
2022/06/21 10:18:41;;;;;;;1.63;1.53;;;23.30;65.00;;;;;;5049270;28;21043;-88
2022/06/21 10:21:43;;;;;;;2.10;1.90;;;23.50;66.90;;;;;;5049446;28;20697;-91
2022/06/21 10:24:25;;;;;;;1.40;1.30;;;23.60;63.00;;;;;;5048950;28;20661;-86
2022/06/21 10:27:21;;;;;;;1.70;1.60;;;23.60;63.30;;;;;;5048517;28;20630;-86
2022/06/21 10:30:13;;;;;;;3.90;1.30;;;23.80;64.30;;;;;;5048988;28;21486;-87
2022/06/21 10:33:01;;;;;;;1.60;1.50;;;23.90;62.00;;;;;;5049117;28;20902;-87
2022/06/21 10:35:41;;;;;;;1.20;1.10;;;23.90;62.60;;;;;;5049093;28;20697;-86
2022/06/21 10:38:41;;;;;;;1.43;1.33;;;23.90;63.80;;;;;;5048647;28;20638;-88
2022/06/21 10:41:20;;;;;;;1.63;1.53;;;24.20;65.40;;;;;;5038100;28;21080;-87
2022/06/21 10:44:24;;;;;;;1.60;1.50;;;24.50;62.30;;;;;;5049061;28;20621;-86
2022/06/21 10:46:59;;;;;;;1.70;1.60;;;24.60;62.80;;;;;;5037546;28;20704;-87
2022/06/21 10:50:21;;;;;;;1.33;1.23;;;24.70;63.10;;;;;;5048865;28;20746;-91
2022/06/21 10:53:05;;;;;;;1.57;1.47;;;24.90;62.80;;;;;;5024140;28;20634;-86
2022/06/21 10:58:53;;;;;;;1.37;1.27;;;25.20;63.90;;;;;;5048175;28;21049;-85
2022/06/21 11:01:27;;;;;;;1.60;1.50;;;25.30;63.80;;;;;;5048646;28;20637;-86
2022/06/21 11:04:45;;;;;;;1.47;1.37;;;25.50;61.10;;;;;;5048695;28;20610;-85
2022/06/21 11:07:21;;;;;;;1.27;1.17;;;25.90;63.20;;;;;;5047842;28;20618;-86
2022/06/21 11:09:55;;;;;;;3.17;2.23;;;26.10;62.80;;;;;;5048029;28;20598;-86
2022/06/21 11:15:20;;;;;;;1.70;1.60;;;26.30;59.40;;;;;;5048038;28;21170;-85
2022/06/21 11:17:58;;;;;;;1.63;1.53;;;26.60;60.70;;;;;;5048084;28;20675;-86
2022/06/21 11:20:32;;;;;;;1.97;1.57;;;26.70;60.00;;;;;;5048188;28;20688;-88
2022/06/21 11:23:11;;;;;;;1.60;1.50;;;27.10;62.40;;;;;;5048595;28;20621;-86
2022/06/21 11:25:48;;;;;;;1.43;1.33;;;27.10;58.80;;;;;;5048338;28;20728;-86
2022/06/21 11:28:28;;;;;;;2.03;1.83;;;26.90;59.20;;;;;;5047997;28;20659;-89
2022/06/21 11:31:01;;;;;;;2.03;1.90;;;26.60;58.80;;;;;;5048096;28;20687;-87
2022/06/21 11:33:38;;;;;;;1.40;1.30;;;26.40;59.10;;;;;;5048795;28;20602;-86
2022/06/21 11:36:12;;;;;;;2.37;2.23;;;26.10;59.60;;;;;;5047827;28;20624;-86
2022/06/21 11:38:55;;;;;;;1.57;1.47;;;26.00;61.10;;;;;;5048291;28;20602;-87
2022/06/21 11:44:32;;;;;;;1.70;1.60;;;26.00;62.40;;;;;;5048103;28;21083;-87
2022/06/21 11:47:07;;;;;;;1.90;1.80;;;26.40;62.60;;;;;;5047272;28;20724;-87
2022/06/21 11:49:38;;;;;;;2.20;2.00;;;26.70;63.20;;;;;;5047770;28;20996;-86
2022/06/21 11:52:56;;;;;;;2.17;2.00;;;27.20;60.10;;;;;;5048192;28;20622;-87
2022/06/21 11:55:33;;;;;;;1.50;1.40;;;27.10;59.30;;;;;;5048058;28;20614;-84
2022/06/21 11:58:09;;;;;;;1.87;1.77;;;27.10;59.30;;;;;;5046326;28;20760;-87
2022/06/21 12:00:44;;;;;;;1.67;1.57;;;27.10;60.60;;;;;;5047921;28;21073;-86
2022/06/21 12:03:17;;;;;;;1.80;1.33;;;26.80;60.50;;;;;;5048004;28;20621;-88
2022/06/21 12:05:51;;;;;;;1.53;1.43;;;26.60;60.90;;;;;;5047433;28;20687;-84
2022/06/21 12:08:24;;;;;;;4.00;2.33;;;26.50;60.80;;;;;;5047428;28;20665;-88
2022/06/21 12:10:59;;;;;;;2.03;1.93;;;26.50;61.60;;;;;;5047964;28;20755;-86
2022/06/21 12:13:40;;;;;;;2.20;2.00;;;26.60;61.10;;;;;;5048004;28;20636;-87
2022/06/21 12:16:22;;;;;;;2.23;2.07;;;27.60;62.60;;;;;;5047697;28;20657;-88
2022/06/21 12:18:54;;;;;;;1.57;1.50;;;27.80;59.10;;;;;;5047943;28;20606;-89
2022/06/21 12:21:26;;;;;;;2.03;1.93;;;28.60;59.00;;;;;;5047799;28;20654;-86
2022/06/21 12:23:56;;;;;;;1.83;1.73;;;28.50;59.30;;;;;;5048253;28;20605;-88
2022/06/21 12:26:27;;;;;;;2.50;2.30;;;28.80;58.10;;;;;;5046909;28;20688;-87
2022/06/21 12:28:59;;;;;;;1.90;1.80;;;29.50;57.30;;;;;;5047445;28;21078;-86
2022/06/21 12:31:30;;;;;;;2.00;1.90;;;29.60;56.40;;;;;;5047865;28;20663;-86
2022/06/21 12:34:07;;;;;;;1.87;1.77;;;29.20;57.20;;;;;;5047826;28;20649;-89
2022/06/21 12:36:43;;;;;;;1.93;1.83;;;27.70;57.70;;;;;;5050725;28;20728;-86
2022/06/21 12:39:19;;;;;;;1.97;1.87;;;28.20;58.40;;;;;;5051599;28;20652;-87
2022/06/21 12:42:30;;;;;;;2.43;2.23;;;27.10;59.20;;;;;;5050899;28;20656;-88
2022/06/21 12:45:12;;;;;;;2.67;2.47;;;26.80;63.30;;;;;;5003334;28;20630;-87
2022/06/21 12:47:51;;;;;;;1.93;1.83;;;26.80;62.40;;;;;;5050562;28;20710;-86
2022/06/21 12:50:44;;;;;;;2.00;1.90;;;26.50;64.40;;;;;;5051111;28;21175;-89
2022/06/21 12:53:47;;;;;;;3.43;2.50;;;26.30;63.70;;;;;;5051580;28;20633;-86
2022/06/21 12:56:26;;;;;;;2.67;2.47;;;26.30;64.30;;;;;;5049433;28;20688;-89
2022/06/21 12:59:27;;;;;;;5.17;2.80;;;26.30;63.30;;;;;;5051087;28;20931;-86
2022/06/21 13:02:10;;;;;;;2.17;2.00;;;27.20;65.40;;;;;;5050571;28;20725;-86
2022/06/21 13:04:54;;;;;;;2.33;2.13;;;28.60;61.30;;;;;;5050871;28;20687;-85
2022/06/21 13:07:41;;;;;;;1.97;1.87;;;31.20;56.80;;;;;;5050190;28;21582;-88
2022/06/21 13:10:29;;;;;;;1.87;1.77;;;31.50;56.30;;;;;;5050939;28;20984;-85
2022/06/21 13:13:16;;;;;;;2.47;2.27;;;33.20;52.20;;;;;;5050520;28;20622;-85
2022/06/21 13:16:08;;;;;;;3.10;2.90;;;33.20;52.50;;;;;;5050319;28;21137;-87
2022/06/21 13:18:53;;;;;;;2.60;2.40;;;33.80;50.80;;;;;;5051038;28;20626;-87
2022/06/21 13:21:30;;;;;;;2.27;2.07;;;34.10;50.30;;;;;;5050208;28;20649;-86
2022/06/21 13:24:13;;;;;;;2.60;2.40;;;34.80;49.30;;;;;;5050984;28;20690;-86
2022/06/21 13:27:05;;;;;;;2.83;2.50;;;34.80;49.90;;;;;;5049487;28;20668;-89
2022/06/21 13:29:42;;;;;;;2.30;2.20;;;35.60;48.00;;;;;;5050155;28;20729;-88
2022/06/21 13:32:18;;;;;;;5.10;2.10;;;35.60;48.50;;;;;;5050113;28;20644;-86
2022/06/21 13:34:53;;;;;;;3.00;2.80;;;35.80;47.00;;;;;;5050425;28;20648;-89
2022/06/21 13:37:27;;;;;;;2.23;2.13;;;35.00;46.40;;;;;;5049680;28;21034;-88
2022/06/21 13:40:03;;;;;;;2.57;2.47;;;34.90;46.80;;;;;;5050069;28;20657;-87
2022/06/21 13:42:40;;;;;;;2.50;2.30;;;34.10;48.70;;;;;;5030328;28;20619;-85
2022/06/21 13:45:36;;;;;;;2.63;2.43;;;33.60;49.20;;;;;;5030176;28;20679;-86
2022/06/21 13:48:08;;;;;;;2.53;2.33;;;32.80;50.40;;;;;;5029700;28;20613;-87
2022/06/21 13:50:52;;;;;;;2.20;2.10;;;33.60;50.40;;;;;;5030019;28;20724;-87
2022/06/21 13:53:34;;;;;;;2.67;2.47;;;33.70;50.80;;;;;;5030288;28;20622;-85
2022/06/21 13:56:05;;;;;;;2.73;2.53;;;35.20;48.10;;;;;;5028296;28;20692;-86
2022/06/21 13:58:38;;;;;;;2.43;2.33;;;35.20;48.80;;;;;;5029568;28;20717;-88